createdAt,value
2023-11-08T00:00:16.432Z,83.85
2023-11-08T00:05:18.379Z,84.02
2023-11-08T00:10:20.129Z,84.07
2023-11-08T00:15:21.853Z,84.66
2023-11-08T00:20:23.783Z,84.67
2023-11-08T00:25:25.476Z,84.43
2023-11-08T00:30:27.224Z,84.20
2023-11-08T00:35:29.109Z,84.71
2023-11-08T00:40:30.991Z,84.47
2023-11-08T00:45:33.098Z,84.21
2023-11-08T00:50:34.944Z,84.47
2023-11-08T00:55:36.929Z,84.96
2023-11-08T01:00:38.822Z,84.27
2023-11-08T01:05:40.704Z,83.21
2023-11-08T01:10:43.189Z,83.63
2023-11-08T01:15:45.288Z,84.88
2023-11-08T01:20:46.945Z,84.59
2023-11-08T01:25:48.979Z,83.49
2023-11-08T01:30:50.703Z,84.51
2023-11-08T01:35:52.785Z,85.24
2023-11-08T01:40:54.652Z,85.14
2023-11-08T01:46:03.928Z,84.40
2023-11-08T01:51:06.172Z,84.80
2023-11-08T01:56:08.581Z,85.41
2023-11-08T02:01:10.990Z,85.38
2023-11-08T02:06:13.654Z,84.66
2023-11-08T02:11:15.473Z,85.05
2023-11-08T02:16:17.318Z,85.40
2023-11-08T02:21:19.182Z,84.75
2023-11-08T02:26:21.280Z,84.73
2023-11-08T02:31:23.156Z,83.98
2023-11-08T02:36:24.970Z,84.32
2023-11-08T02:41:26.944Z,85.26
2023-11-08T02:46:28.794Z,84.56
2023-11-08T02:51:30.692Z,84.86
2023-11-08T02:56:38.424Z,85.45
2023-11-08T03:01:40.279Z,85.10
2023-11-08T03:06:43.151Z,83.71
2023-11-08T03:11:45.159Z,84.45
2023-11-08T03:16:46.903Z,85.46
2023-11-08T03:21:49.344Z,85.22
2023-11-08T03:26:51.398Z,83.53
2023-11-08T03:31:54.794Z,84.17
2023-11-08T03:36:56.704Z,85.19
2023-11-08T03:41:58.384Z,85.05
2023-11-08T03:47:00.130Z,84.28
2023-11-08T03:52:05.404Z,84.74
2023-11-08T03:57:07.154Z,85.29
2023-11-08T04:02:08.864Z,84.86
2023-11-08T04:07:10.909Z,84.57
2023-11-08T04:12:12.859Z,84.90
2023-11-08T04:17:14.564Z,84.93
2023-11-08T04:22:16.402Z,84.53
2023-11-08T04:27:18.170Z,83.87
2023-11-08T04:32:20.119Z,84.11
2023-11-08T04:37:21.781Z,84.69
2023-11-08T04:42:23.681Z,84.47
2023-11-08T04:47:25.408Z,83.88
2023-11-08T04:52:27.325Z,84.44
2023-11-08T04:57:29.128Z,84.82
2023-11-08T05:02:30.928Z,84.26
2023-11-08T05:07:32.755Z,83.94
2023-11-08T05:12:34.708Z,84.01
2023-11-08T05:17:39.517Z,84.38
2023-11-08T05:22:42.412Z,84.36
2023-11-08T05:27:44.441Z,84.21
2023-11-08T05:32:46.324Z,83.68
2023-11-08T05:37:48.104Z,84.16
2023-11-08T05:42:50.060Z,83.66
2023-11-08T05:47:52.536Z,83.87
2023-11-08T05:52:54.478Z,83.28
2023-11-08T05:57:56.449Z,83.93
2023-11-08T06:02:58.303Z,83.82
2023-11-08T06:08:00.107Z,82.49
2023-11-08T06:13:02.405Z,81.40
2023-11-08T06:18:04.323Z,82.66
2023-11-08T06:23:06.048Z,82.95
2023-11-08T06:28:07.721Z,82.20
2023-11-08T06:33:09.600Z,82.00
2023-11-08T06:38:11.523Z,82.29
2023-11-08T06:43:13.584Z,81.55
2023-11-08T06:48:15.492Z,80.49
2023-11-08T06:53:17.531Z,80.81
2023-11-08T06:58:19.496Z,81.40
2023-11-08T07:03:21.212Z,80.17
2023-11-08T07:08:23.016Z,78.18
2023-11-08T07:13:25.049Z,78.55
2023-11-08T07:18:26.891Z,79.13
2023-11-08T07:23:28.675Z,76.96
2023-11-08T07:28:30.498Z,76.46
2023-11-08T07:33:32.371Z,76.36
2023-11-08T07:38:34.225Z,76.03
2023-11-08T07:43:35.889Z,74.40
2023-11-08T07:48:38.025Z,75.05
2023-11-08T07:53:39.983Z,75.18
2023-11-08T07:58:41.627Z,73.82
2023-11-08T08:03:43.721Z,72.08
2023-11-08T08:08:45.655Z,72.99
2023-11-08T08:13:47.380Z,73.58
2023-11-08T08:18:49.308Z,71.69
2023-11-08T08:23:58.077Z,72.70
2023-11-08T08:29:04.065Z,72.91
2023-11-08T08:34:07.412Z,73.09
2023-11-08T08:39:10.510Z,72.49
2023-11-08T08:44:13.108Z,72.03
2023-11-08T08:49:16.463Z,71.94
2023-11-08T08:54:19.737Z,72.42
2023-11-08T08:59:21.488Z,71.51
2023-11-08T09:04:23.417Z,69.62
2023-11-08T09:09:25.458Z,70.00
2023-11-08T09:14:27.623Z,70.01
2023-11-08T09:19:29.353Z,68.61
2023-11-08T09:24:31.502Z,67.19
2023-11-08T09:29:33.647Z,67.53
2023-11-08T09:34:35.488Z,67.36
2023-11-08T09:39:37.785Z,66.35
2023-11-08T09:44:40.439Z,65.82
2023-11-08T09:49:42.841Z,65.86
2023-11-08T09:54:45.743Z,66.28
2023-11-08T09:59:47.703Z,66.47
2023-11-08T10:04:49.849Z,66.64
2023-11-08T10:09:52.754Z,67.12
2023-11-08T10:15:01.635Z,67.40
2023-11-08T10:20:04.173Z,67.59
2023-11-08T10:25:06.530Z,68.37
2023-11-08T10:30:27.056Z,67.89
2023-11-08T10:35:38.905Z,66.82
2023-11-08T10:40:40.825Z,68.23
2023-11-08T10:45:42.739Z,67.85
2023-11-08T10:50:44.800Z,68.28
2023-11-08T10:55:46.569Z,68.21
2023-11-08T11:00:49.555Z,68.34
2023-11-08T11:05:51.404Z,69.09
2023-11-08T11:10:53.166Z,69.87
2023-11-08T11:16:27.248Z,70.30
2023-11-08T11:21:42.759Z,70.63
2023-11-08T11:26:45.658Z,70.72
2023-11-08T11:31:47.481Z,71.62
2023-11-08T11:37:01.693Z,72.27
2023-11-08T11:42:19.503Z,72.49
2023-11-08T11:47:23.511Z,73.24
2023-11-08T11:52:25.450Z,73.57
2023-11-08T11:57:27.817Z,74.24
2023-11-08T12:02:30.654Z,74.74
2023-11-08T12:07:33.041Z,76.01
2023-11-08T12:12:34.982Z,76.12
2023-11-08T12:17:37.032Z,77.03
2023-11-08T12:22:39.740Z,77.93
2023-11-08T12:27:41.748Z,78.42
2023-11-08T12:32:43.830Z,79.01
2023-11-08T12:37:45.916Z,79.27
2023-11-08T12:42:48.152Z,79.53
2023-11-08T12:47:49.916Z,80.03
2023-11-08T12:52:52.908Z,80.54
2023-11-08T12:57:54.612Z,80.70
2023-11-08T13:02:59.649Z,80.69
2023-11-08T13:08:01.522Z,80.68
2023-11-08T13:13:03.433Z,81.34
2023-11-08T13:18:05.720Z,81.40
2023-11-08T13:23:19.439Z,81.60
2023-11-08T13:28:29.403Z,82.05
2023-11-08T13:33:31.162Z,82.43
2023-11-08T13:38:34.919Z,82.44
2023-11-08T13:43:39.753Z,82.86
2023-11-08T13:48:43.141Z,83.27
2023-11-08T13:53:45.099Z,83.58
2023-11-08T13:58:46.887Z,83.50
2023-11-08T14:03:48.763Z,83.28
2023-11-08T14:08:50.981Z,83.78
2023-11-08T14:13:53.109Z,83.76
2023-11-08T14:18:55.297Z,83.79
2023-11-08T14:23:57.103Z,83.95
2023-11-08T14:28:59.021Z,83.74
2023-11-08T14:34:01.035Z,83.61
2023-11-08T14:39:03.308Z,84.13
2023-11-08T14:44:05.662Z,84.14
2023-11-08T14:49:07.696Z,83.90
2023-11-08T14:54:09.703Z,83.77
2023-11-08T14:59:11.363Z,84.11
2023-11-08T15:04:13.287Z,83.99
2023-11-08T15:09:52.637Z,84.24
2023-11-08T15:14:37.238Z,84.19
2023-11-08T15:19:39.035Z,84.55
2023-11-08T15:24:40.910Z,84.36
2023-11-08T15:29:42.641Z,84.55
2023-11-08T15:34:44.604Z,84.14
2023-11-08T15:39:46.413Z,84.63
2023-11-08T15:44:48.180Z,84.70
2023-11-08T15:49:50.190Z,84.21
2023-11-08T15:54:51.890Z,84.61
2023-11-08T15:59:53.916Z,84.19
2023-11-08T16:04:55.827Z,84.40
2023-11-08T16:09:58.008Z,84.73
2023-11-08T16:14:59.899Z,84.67
2023-11-08T16:20:03.845Z,84.08
2023-11-08T16:25:06.300Z,84.52
2023-11-08T16:30:09.234Z,84.41
2023-11-08T16:35:12.297Z,84.17
2023-11-08T16:40:14.769Z,83.92
2023-11-08T16:45:16.661Z,84.12
2023-11-08T16:50:19.157Z,84.06
2023-11-08T16:55:21.604Z,83.41
2023-11-08T17:00:23.454Z,83.95
2023-11-08T17:05:25.297Z,83.15
2023-11-08T17:10:27.614Z,83.11
2023-11-08T17:15:29.562Z,83.21
2023-11-08T17:20:31.463Z,82.80
2023-11-08T17:25:33.238Z,82.69
2023-11-08T17:30:34.906Z,82.15
2023-11-08T17:35:36.772Z,82.31
2023-11-08T17:40:38.760Z,82.08
2023-11-08T17:45:41.893Z,82.40
2023-11-08T17:50:43.743Z,81.74
2023-11-08T17:55:45.920Z,81.50
2023-11-08T18:00:49.736Z,82.00
2023-11-08T18:05:51.670Z,81.04
2023-11-08T18:10:53.812Z,80.91
2023-11-08T18:15:55.728Z,80.57
2023-11-08T18:20:57.665Z,79.57
2023-11-08T18:25:59.867Z,79.48
2023-11-08T18:31:01.815Z,79.44
2023-11-08T18:36:03.925Z,78.61
2023-11-08T18:41:05.795Z,78.43
2023-11-08T18:46:09.970Z,78.88
2023-11-08T18:51:13.027Z,78.30
2023-11-08T18:56:24.158Z,77.38
2023-11-08T19:01:26.008Z,77.83
2023-11-08T19:06:35.362Z,78.08
2023-11-08T19:11:37.207Z,76.82
2023-11-08T19:16:41.144Z,76.08
2023-11-08T19:21:45.094Z,75.87
2023-11-08T19:26:46.971Z,77.48
2023-11-08T19:37:32.857Z,76.23
2023-11-08T19:42:35.127Z,77.30
2023-11-08T19:47:39.569Z,77.02
2023-11-08T19:52:41.823Z,76.63
2023-11-08T19:57:44.324Z,76.05
2023-11-08T20:02:46.593Z,76.72
2023-11-08T20:07:48.994Z,77.02
2023-11-08T20:12:51.248Z,76.77
2023-11-08T20:17:53.568Z,76.56
2023-11-08T20:22:55.956Z,77.11
2023-11-08T20:27:58.590Z,77.75
2023-11-08T20:33:01.199Z,77.27
2023-11-08T20:38:05.732Z,76.99
2023-11-08T20:43:08.028Z,76.93
2023-11-08T20:48:10.212Z,77.44
2023-11-08T20:53:15.320Z,76.42
2023-11-08T20:58:18.009Z,76.14
2023-11-08T21:03:22.869Z,76.80
2023-11-08T21:08:25.361Z,77.76
2023-11-08T21:13:27.863Z,77.79
2023-11-08T21:18:30.265Z,77.44
2023-11-08T21:23:32.438Z,77.66
2023-11-08T21:28:34.607Z,78.05
2023-11-08T21:33:36.650Z,77.93
2023-11-08T21:38:38.876Z,77.92
2023-11-08T21:43:41.524Z,78.63
2023-11-08T21:48:45.160Z,78.28
2023-11-08T21:53:47.521Z,77.94
2023-11-08T21:58:49.796Z,78.32
2023-11-08T22:03:52.803Z,78.96
2023-11-08T22:08:57.463Z,78.45
2023-11-08T22:14:19.777Z,78.70
2023-11-08T22:19:21.938Z,79.43
2023-11-08T22:24:24.350Z,78.87
2023-11-08T22:29:26.651Z,78.29
2023-11-08T22:34:28.903Z,78.28
2023-11-08T22:39:32.043Z,78.94
2023-11-08T22:44:35.865Z,78.76
2023-11-08T22:49:38.160Z,78.13
2023-11-08T22:54:40.360Z,78.41
2023-11-08T22:59:42.652Z,78.80
2023-11-08T23:04:44.866Z,78.75
2023-11-08T23:09:47.158Z,78.40
2023-11-08T23:14:51.430Z,78.75
2023-11-08T23:19:55.095Z,79.33
2023-11-08T23:24:57.451Z,78.92
2023-11-08T23:29:59.491Z,78.91
2023-11-08T23:35:02.213Z,78.72
2023-11-08T23:40:04.938Z,79.61
2023-11-08T23:45:07.762Z,79.30
2023-11-08T23:50:10.658Z,79.07
2023-11-08T23:55:12.913Z,78.96
